Time;durP1;ratioP1;P1;durP2;ratioP2;P2;SDS_P1;SDS_P2;PMS_P1;PMS_P2;Temp;Humidity;BMP_temperature;BMP_pressure;BME280_temperature;BME280_humidity;BME280_pressure;Samples;Min_cycle;Max_cycle;Signal;HPM_P1;HPM_P2
2023/05/07 00:01:43;;;;;;;18.58;9.68;;;10.90;99.90;;;;;;4950807;28;20128;-74
2023/05/07 00:04:09;;;;;;;17.42;10.40;;;10.90;99.90;;;;;;4954423;28;20050;-73
2023/05/07 00:06:35;;;;;;;14.95;8.30;;;10.80;99.90;;;;;;4970643;28;20496;-75
2023/05/07 00:09:01;;;;;;;15.48;10.68;;;10.90;99.90;;;;;;4959126;28;20054;-74
2023/05/07 00:11:27;;;;;;;17.95;10.55;;;10.90;99.90;;;;;;4956987;28;20270;-74
2023/05/07 00:13:53;;;;;;;26.83;11.05;;;10.90;99.90;;;;;;4973722;28;20053;-74
2023/05/07 00:16:19;;;;;;;16.30;10.65;;;11.00;99.90;;;;;;4974260;28;20042;-73
2023/05/07 00:18:45;;;;;;;19.80;11.30;;;10.90;99.90;;;;;;4970757;28;20144;-73
2023/05/07 00:21:11;;;;;;;19.27;10.90;;;10.90;99.90;;;;;;4955995;28;20092;-74
2023/05/07 00:23:37;;;;;;;18.70;11.13;;;11.00;99.90;;;;;;4961663;28;20430;-74
2023/05/07 00:26:03;;;;;;;16.50;10.25;;;11.00;99.90;;;;;;4981273;28;20492;-74
2023/05/07 00:28:29;;;;;;;17.30;10.75;;;11.00;99.90;;;;;;4984377;28;20947;-73
2023/05/07 00:30:57;;;;;;;21.70;9.65;;;11.00;99.90;;;;;;4978593;28;20046;-74
2023/05/07 00:33:23;;;;;;;15.35;9.55;;;11.00;99.90;;;;;;4969494;28;20081;-74
2023/05/07 00:35:49;;;;;;;17.83;11.38;;;11.00;99.90;;;;;;4950071;28;20081;-74
2023/05/07 00:38:15;;;;;;;14.27;10.27;;;11.00;99.90;;;;;;4970868;28;20574;-73
2023/05/07 00:40:41;;;;;;;17.65;10.45;;;11.10;99.90;;;;;;4953845;28;20188;-74
2023/05/07 00:43:07;;;;;;;15.75;9.85;;;11.10;99.90;;;;;;4971384;28;20042;-73
2023/05/07 00:45:33;;;;;;;16.83;10.25;;;11.00;99.90;;;;;;4969709;28;20082;-74
2023/05/07 00:48:01;;;;;;;19.85;11.05;;;11.00;99.90;;;;;;4951748;28;20049;-74
2023/05/07 00:50:30;;;;;;;16.50;10.77;;;11.10;99.90;;;;;;4967504;28;20496;-74
2023/05/07 00:52:56;;;;;;;18.43;10.97;;;11.00;99.90;;;;;;4970525;28;20054;-74
2023/05/07 00:55:23;;;;;;;18.23;10.40;;;11.10;99.90;;;;;;4970584;28;20054;-75
2023/05/07 00:57:50;;;;;;;16.27;9.93;;;11.10;99.90;;;;;;4969457;28;20042;-74
2023/05/07 01:00:16;;;;;;;17.38;10.55;;;11.10;99.90;;;;;;4970129;28;20046;-74
2023/05/07 01:02:42;;;;;;;19.95;11.18;;;11.10;99.90;;;;;;4943184;28;20131;-74
2023/05/07 01:05:16;;;;;;;18.15;10.30;;;11.10;99.90;;;;;;4964383;28;20062;-74
2023/05/07 01:07:43;;;;;;;16.45;10.70;;;11.10;99.90;;;;;;4970344;28;20054;-75
2023/05/07 01:10:10;;;;;;;13.60;10.57;;;11.10;99.90;;;;;;4970182;28;20054;-74
2023/05/07 01:12:37;;;;;;;15.70;10.73;;;11.10;99.90;;;;;;4954729;28;20117;-75
2023/05/07 01:15:05;;;;;;;16.88;10.32;;;11.10;99.90;;;;;;4969230;28;20054;-74
2023/05/07 01:17:35;;;;;;;13.55;9.63;;;11.10;99.90;;;;;;4970414;28;20034;-74
2023/05/07 01:20:01;;;;;;;15.05;10.10;;;11.10;99.90;;;;;;4953342;28;20070;-74
2023/05/07 01:22:36;;;;;;;16.58;10.30;;;11.10;99.90;;;;;;4983779;28;20077;-74
2023/05/07 01:25:03;;;;;;;15.15;10.32;;;11.10;99.90;;;;;;4970172;28;20109;-75
2023/05/07 01:27:29;;;;;;;20.33;10.63;;;11.10;99.90;;;;;;4969389;28;20116;-74
2023/05/07 01:29:55;;;;;;;17.42;11.10;;;11.00;99.90;;;;;;4970396;28;20045;-73
2023/05/07 01:32:32;;;;;;;19.15;12.10;;;11.10;99.90;;;;;;4968573;28;20062;-74
2023/05/07 01:34:59;;;;;;;19.15;12.63;;;11.00;99.90;;;;;;4970693;28;20131;-75
2023/05/07 01:37:26;;;;;;;15.65;10.27;;;11.10;99.90;;;;;;4968416;28;20057;-74
2023/05/07 01:39:52;;;;;;;22.60;11.35;;;11.10;99.90;;;;;;4954334;28;20116;-73
2023/05/07 01:42:18;;;;;;;17.60;11.23;;;11.00;99.90;;;;;;4953513;28;20052;-75
2023/05/07 01:44:44;;;;;;;18.50;11.70;;;11.10;99.90;;;;;;4955662;28;20046;-74
2023/05/07 01:47:11;;;;;;;15.57;10.38;;;11.00;99.90;;;;;;4974119;28;20405;-73
2023/05/07 01:49:37;;;;;;;17.58;10.60;;;11.00;99.90;;;;;;4972283;28;20092;-74
2023/05/07 01:52:03;;;;;;;15.57;10.63;;;11.00;99.90;;;;;;4974677;28;20452;-74
2023/05/07 01:54:29;;;;;;;17.98;10.25;;;11.00;99.90;;;;;;4972862;28;20043;-75
2023/05/07 01:56:57;;;;;;;20.98;10.23;;;11.00;99.90;;;;;;4974196;28;20050;-75
2023/05/07 01:59:22;;;;;;;16.88;11.65;;;11.00;99.90;;;;;;4972601;28;20050;-74
2023/05/07 02:01:48;;;;;;;17.00;10.55;;;10.90;99.90;;;;;;4973887;28;20058;-74
2023/05/07 02:04:14;;;;;;;19.98;10.70;;;10.90;99.90;;;;;;4973886;28;20520;-75
2023/05/07 02:06:40;;;;;;;18.35;9.88;;;11.00;99.90;;;;;;4957080;28;20050;-75
2023/05/07 02:09:06;;;;;;;18.90;11.48;;;10.90;99.90;;;;;;4973833;28;20456;-74
2023/05/07 02:11:31;;;;;;;15.30;10.05;;;10.90;99.90;;;;;;4972101;28;20497;-75
2023/05/07 02:13:57;;;;;;;16.38;10.90;;;10.90;99.90;;;;;;4957932;28;20043;-75
2023/05/07 02:16:23;;;;;;;18.73;11.48;;;10.90;99.90;;;;;;4972377;28;20112;-74
2023/05/07 02:18:49;;;;;;;24.48;13.05;;;10.90;99.90;;;;;;4957344;28;20046;-74
2023/05/07 02:21:15;;;;;;;25.52;15.20;;;10.90;99.90;;;;;;4940807;28;20042;-73
2023/05/07 02:23:41;;;;;;;26.27;17.85;;;10.80;99.90;;;;;;4956844;28;20046;-74
2023/05/07 02:26:07;;;;;;;30.55;18.00;;;10.80;99.90;;;;;;4973714;28;20105;-74
2023/05/07 02:28:35;;;;;;;35.08;16.90;;;10.80;99.90;;;;;;4972039;28;20110;-75
2023/05/07 02:31:05;;;;;;;26.25;15.68;;;10.80;99.90;;;;;;4973564;28;20054;-74
2023/05/07 02:33:31;;;;;;;25.25;15.07;;;10.80;99.90;;;;;;4971883;28;20039;-75
2023/05/07 02:36:04;;;;;;;24.52;14.48;;;10.70;99.90;;;;;;4973876;28;20088;-74
2023/05/07 02:38:30;;;;;;;24.33;15.10;;;10.70;99.90;;;;;;4972221;28;20046;-74
2023/05/07 02:40:56;;;;;;;22.33;13.32;;;10.70;99.90;;;;;;4937921;28;20161;-74
2023/05/07 02:43:21;;;;;;;26.55;15.20;;;10.60;99.90;;;;;;4939842;28;20457;-74
2023/05/07 02:45:47;;;;;;;29.25;16.33;;;10.60;99.90;;;;;;4972342;28;20042;-75
2023/05/07 02:48:13;;;;;;;27.00;13.88;;;10.60;99.90;;;;;;4973128;28;20126;-75
2023/05/07 02:50:38;;;;;;;28.65;15.63;;;10.60;99.90;;;;;;4960183;28;20043;-74
2023/05/07 02:53:04;;;;;;;24.23;14.50;;;10.60;99.90;;;;;;4943201;28;20613;-74
2023/05/07 02:55:31;;;;;;;21.20;14.40;;;10.60;99.90;;;;;;4951567;28;20049;-74
2023/05/07 02:57:56;;;;;;;21.40;13.75;;;10.60;99.90;;;;;;4953428;28;20051;-74
2023/05/07 03:00:22;;;;;;;21.80;13.50;;;10.50;99.90;;;;;;4952982;28;20050;-73
2023/05/07 03:02:48;;;;;;;17.50;12.07;;;10.50;99.90;;;;;;4968923;28;20039;-74
2023/05/07 03:05:14;;;;;;;17.10;12.70;;;10.50;99.90;;;;;;4970315;28;20051;-74
2023/05/07 03:07:40;;;;;;;18.23;12.57;;;10.50;99.90;;;;;;4967916;28;20417;-75
2023/05/07 03:10:07;;;;;;;17.80;12.52;;;10.50;99.90;;;;;;4953934;28;20140;-75
2023/05/07 03:12:33;;;;;;;19.70;12.90;;;10.40;99.90;;;;;;4951722;28;20046;-74
2023/05/07 03:14:58;;;;;;;27.33;12.68;;;10.40;99.90;;;;;;4953373;28;20043;-74
2023/05/07 03:17:24;;;;;;;22.83;13.77;;;10.40;99.90;;;;;;4968399;28;20046;-75
2023/05/07 03:19:50;;;;;;;24.77;13.93;;;10.40;99.90;;;;;;4952828;28;20043;-75
2023/05/07 03:22:16;;;;;;;21.38;13.73;;;10.40;99.90;;;;;;4953384;28;20089;-75
2023/05/07 03:24:42;;;;;;;24.13;14.70;;;10.30;99.90;;;;;;4967697;28;20122;-75
2023/05/07 03:27:08;;;;;;;20.67;14.25;;;10.20;99.90;;;;;;4953427;28;20143;-75
2023/05/07 03:29:34;;;;;;;17.42;11.95;;;10.20;99.90;;;;;;4951816;28;20051;-75
2023/05/07 03:31:59;;;;;;;19.83;12.43;;;10.20;99.90;;;;;;4968872;28;20050;-74
2023/05/07 03:34:25;;;;;;;19.20;13.15;;;10.20;99.90;;;;;;4951730;28;20123;-75
2023/05/07 03:36:51;;;;;;;20.75;14.63;;;10.20;99.90;;;;;;4969111;28;20054;-74
2023/05/07 03:39:17;;;;;;;23.08;14.45;;;10.20;99.90;;;;;;4968624;28;20186;-74
2023/05/07 03:41:42;;;;;;;18.95;13.85;;;10.20;99.90;;;;;;4967599;28;20089;-75
2023/05/07 03:44:08;;;;;;;20.15;12.20;;;10.10;99.90;;;;;;4969787;28;20105;-74
2023/05/07 03:46:34;;;;;;;20.65;13.68;;;10.10;99.90;;;;;;4967210;28;20123;-74
2023/05/07 03:49:00;;;;;;;15.43;10.38;;;10.10;99.90;;;;;;4952795;28;20218;-74
2023/05/07 03:51:26;;;;;;;18.58;12.65;;;10.10;99.90;;;;;;4967244;28;20055;-74
2023/05/07 03:53:56;;;;;;;17.95;12.65;;;10.00;99.90;;;;;;4952332;28;20046;-74
2023/05/07 03:56:26;;;;;;;16.63;11.20;;;10.00;99.90;;;;;;4936387;28;20528;-75
2023/05/07 03:58:52;;;;;;;17.07;11.57;;;10.00;99.90;;;;;;4951910;28;20130;-73
2023/05/07 04:01:18;;;;;;;16.52;11.40;;;10.00;99.90;;;;;;4968711;28;20390;-74
2023/05/07 04:03:44;;;;;;;17.27;12.35;;;9.90;99.90;;;;;;4966638;28;20125;-75
2023/05/07 04:06:10;;;;;;;15.05;10.75;;;10.00;99.90;;;;;;4968891;28;20093;-74
2023/05/07 04:08:36;;;;;;;14.73;10.65;;;9.90;99.90;;;;;;4966838;28;20532;-73
2023/05/07 04:11:02;;;;;;;15.52;9.75;;;10.00;99.90;;;;;;4968140;28;20047;-75
2023/05/07 04:13:27;;;;;;;15.88;10.80;;;9.90;99.90;;;;;;4966985;28;20093;-74
2023/05/07 04:15:54;;;;;;;17.73;10.57;;;10.00;99.90;;;;;;4952257;28;20062;-74
2023/05/07 04:18:21;;;;;;;16.40;11.68;;;10.00;99.90;;;;;;4967906;28;20401;-75
2023/05/07 04:20:47;;;;;;;18.55;11.32;;;9.90;99.90;;;;;;4966994;28;20051;-74
2023/05/07 04:23:13;;;;;;;13.32;10.32;;;9.90;99.90;;;;;;4968541;28;20053;-75
2023/05/07 04:25:39;;;;;;;16.65;11.32;;;9.90;99.90;;;;;;4966944;28;20043;-74
2023/05/07 04:28:05;;;;;;;15.60;11.57;;;9.90;99.90;;;;;;4968006;28;20961;-75
2023/05/07 04:30:31;;;;;;;15.30;10.52;;;10.00;99.90;;;;;;4951217;28;20093;-74
2023/05/07 04:32:57;;;;;;;13.85;10.48;;;9.90;99.90;;;;;;4952080;28;20078;-74
2023/05/07 04:35:23;;;;;;;13.82;9.65;;;10.00;99.90;;;;;;4967161;28;20409;-74
2023/05/07 04:37:49;;;;;;;15.43;9.77;;;9.90;99.90;;;;;;4967040;28;20046;-74
2023/05/07 04:40:15;;;;;;;13.73;9.82;;;9.90;99.90;;;;;;4952099;28;20078;-75
2023/05/07 04:42:41;;;;;;;12.70;10.05;;;9.90;99.90;;;;;;4966498;28;20051;-74
2023/05/07 04:45:08;;;;;;;11.68;7.72;;;9.90;99.90;;;;;;4967745;28;20088;-73
2023/05/07 04:47:34;;;;;;;17.00;10.13;;;9.90;99.90;;;;;;4966509;28;20453;-74
2023/05/07 04:50:00;;;;;;;17.35;9.55;;;9.90;99.90;;;;;;4935163;28;20054;-75
2023/05/07 04:52:25;;;;;;;15.70;10.35;;;9.90;99.90;;;;;;4983148;28;20081;-75
2023/05/07 04:54:51;;;;;;;12.10;9.15;;;9.80;99.90;;;;;;4967663;28;20410;-74
2023/05/07 04:57:17;;;;;;;15.10;10.85;;;9.80;99.90;;;;;;4966567;28;20042;-74
2023/05/07 04:59:44;;;;;;;17.70;12.23;;;9.80;99.90;;;;;;4966910;28;20054;-75
2023/05/07 05:02:12;;;;;;;17.02;12.30;;;9.80;99.90;;;;;;4951315;28;20046;-75
2023/05/07 05:04:38;;;;;;;13.85;11.10;;;9.70;99.90;;;;;;4966356;28;20054;-75
2023/05/07 05:07:04;;;;;;;15.35;10.45;;;9.70;99.90;;;;;;4967169;28;20051;-75
2023/05/07 05:09:30;;;;;;;10.45;8.43;;;9.70;99.90;;;;;;4966043;28;20145;-75
2023/05/07 05:11:56;;;;;;;20.23;9.95;;;9.70;99.90;;;;;;4947885;29;20055;-75
2023/05/07 05:14:22;;;;;;;13.48;10.43;;;9.70;99.90;;;;;;4964453;28;20054;-74
2023/05/07 05:16:47;;;;;;;12.77;10.25;;;9.60;99.90;;;;;;4966680;28;20039;-75
2023/05/07 05:19:14;;;;;;;10.70;9.07;;;9.60;99.90;;;;;;4966729;28;20050;-75
2023/05/07 05:21:39;;;;;;;15.13;10.02;;;9.60;99.90;;;;;;4966079;28;20058;-75
2023/05/07 05:24:06;;;;;;;12.38;9.88;;;9.60;99.90;;;;;;4967237;28;20208;-75
2023/05/07 05:26:31;;;;;;;10.05;8.27;;;9.60;99.90;;;;;;4965485;28;20047;-74
2023/05/07 05:28:57;;;;;;;11.45;9.13;;;9.60;99.90;;;;;;4966865;28;20050;-75
2023/05/07 05:31:23;;;;;;;11.02;8.43;;;9.60;99.90;;;;;;4966166;28;20109;-76
2023/05/07 05:33:49;;;;;;;12.77;9.10;;;9.60;99.90;;;;;;4967733;28;20060;-76
2023/05/07 05:36:15;;;;;;;14.07;10.27;;;9.60;99.90;;;;;;4966356;28;20489;-75
2023/05/07 05:38:41;;;;;;;12.95;9.90;;;9.70;99.90;;;;;;4966390;28;20038;-75
2023/05/07 05:41:06;;;;;;;11.73;9.07;;;9.60;99.90;;;;;;4950798;28;20370;-75
2023/05/07 05:43:32;;;;;;;12.45;9.50;;;9.70;99.90;;;;;;4965419;28;20057;-74
2023/05/07 05:46:00;;;;;;;10.13;7.30;;;9.70;99.90;;;;;;4970469;28;20494;-74
2023/05/07 05:48:26;;;;;;;10.90;8.57;;;9.60;99.90;;;;;;4965544;28;20053;-75
2023/05/07 05:50:51;;;;;;;12.25;8.15;;;9.60;99.90;;;;;;4972628;28;20047;-74
2023/05/07 05:53:17;;;;;;;13.75;9.38;;;9.60;99.90;;;;;;4967003;28;20413;-75
2023/05/07 05:55:43;;;;;;;13.00;9.90;;;9.60;99.90;;;;;;4955753;28;20047;-76
2023/05/07 05:58:09;;;;;;;13.65;9.70;;;9.60;99.90;;;;;;4965939;28;20043;-75
2023/05/07 06:00:35;;;;;;;13.73;9.15;;;9.60;99.90;;;;;;4977438;28;20465;-75
2023/05/07 06:03:02;;;;;;;14.55;10.38;;;9.60;99.90;;;;;;4967130;28;20085;-75
2023/05/07 06:05:28;;;;;;;17.17;10.85;;;9.70;99.90;;;;;;4974781;28;20105;-75
2023/05/07 06:07:53;;;;;;;14.40;10.18;;;9.60;99.90;;;;;;4971821;28;20039;-75
2023/05/07 06:10:19;;;;;;;12.52;9.75;;;9.70;99.90;;;;;;4969139;28;20127;-76
2023/05/07 06:12:45;;;;;;;16.00;10.90;;;9.70;99.90;;;;;;4967075;28;20047;-76
2023/05/07 06:15:10;;;;;;;12.77;9.88;;;9.70;99.90;;;;;;4966113;28;20573;-75
2023/05/07 06:17:36;;;;;;;13.10;9.65;;;9.70;99.90;;;;;;4965934;28;20043;-75
2023/05/07 06:20:02;;;;;;;14.38;10.15;;;9.70;99.90;;;;;;4967320;28;20059;-74
2023/05/07 06:22:28;;;;;;;15.13;10.05;;;9.70;99.90;;;;;;4964536;28;20042;-75
2023/05/07 06:24:54;;;;;;;16.60;11.13;;;9.70;99.90;;;;;;4967297;28;20094;-75
2023/05/07 06:27:19;;;;;;;16.15;10.75;;;9.70;99.90;;;;;;4965145;28;20593;-74
2023/05/07 06:29:45;;;;;;;13.35;10.57;;;9.70;99.90;;;;;;4966911;28;20105;-75
2023/05/07 06:32:12;;;;;;;14.55;9.98;;;9.80;99.90;;;;;;4969076;28;20121;-75
2023/05/07 06:34:39;;;;;;;13.18;8.85;;;9.80;99.90;;;;;;4954441;28;20051;-75
2023/05/07 06:37:06;;;;;;;17.88;10.82;;;9.80;99.90;;;;;;4970258;28;20114;-76
2023/05/07 06:39:37;;;;;;;17.20;10.50;;;9.80;99.90;;;;;;4982646;28;20061;-75
2023/05/07 06:42:04;;;;;;;20.02;10.52;;;9.90;99.90;;;;;;4970301;28;20065;-75
2023/05/07 06:44:30;;;;;;;17.95;10.85;;;9.90;99.90;;;;;;4968431;28;20051;-75
2023/05/07 06:46:56;;;;;;;16.42;11.10;;;9.90;99.90;;;;;;4957109;28;20084;-74
2023/05/07 06:49:22;;;;;;;16.17;10.50;;;9.90;99.90;;;;;;4968226;28;20556;-75
2023/05/07 06:51:48;;;;;;;15.23;10.77;;;10.00;99.90;;;;;;4983402;28;20153;-76
2023/05/07 06:54:14;;;;;;;13.57;9.40;;;10.00;99.90;;;;;;4965326;28;20133;-74
2023/05/07 06:56:39;;;;;;;19.40;10.30;;;10.00;99.90;;;;;;4962895;28;20062;-75
2023/05/07 06:59:06;;;;;;;19.98;10.18;;;10.00;99.90;;;;;;4966437;28;20085;-74
2023/05/07 07:01:32;;;;;;;16.63;11.85;;;10.00;99.90;;;;;;4957956;28;20420;-75
2023/05/07 07:03:58;;;;;;;17.45;10.65;;;10.00;99.90;;;;;;4979915;28;20133;-74
2023/05/07 07:06:23;;;;;;;18.58;11.13;;;10.00;99.90;;;;;;4971681;28;20059;-74
2023/05/07 07:08:49;;;;;;;14.90;11.27;;;10.00;99.90;;;;;;4960841;28;20054;-76
2023/05/07 07:11:15;;;;;;;18.92;10.23;;;10.10;99.90;;;;;;4935886;28;20038;-75
2023/05/07 07:13:42;;;;;;;15.68;10.82;;;10.20;99.90;;;;;;4952428;28;20056;-75
2023/05/07 07:16:08;;;;;;;18.33;12.00;;;10.20;99.90;;;;;;4981988;28;20046;-75
2023/05/07 07:18:34;;;;;;;19.92;12.10;;;10.20;99.90;;;;;;4978662;28;20054;-74
2023/05/07 07:21:00;;;;;;;18.35;10.70;;;10.30;99.90;;;;;;4957474;28;20054;-74
2023/05/07 07:23:26;;;;;;;18.88;12.57;;;10.20;99.90;;;;;;4959971;28;20097;-75
2023/05/07 07:25:51;;;;;;;21.55;12.63;;;10.30;99.90;;;;;;4972184;28;20038;-75
2023/05/07 07:28:17;;;;;;;20.20;11.82;;;10.30;99.90;;;;;;4959642;28;20097;-75
2023/05/07 07:30:44;;;;;;;16.88;10.82;;;10.40;99.90;;;;;;4957824;28;20038;-75
2023/05/07 07:33:09;;;;;;;15.82;12.52;;;10.40;99.90;;;;;;4960493;28;20046;-75
2023/05/07 07:35:35;;;;;;;15.90;12.07;;;10.40;99.90;;;;;;4967838;28;20050;-75
2023/05/07 07:38:01;;;;;;;16.30;12.18;;;10.40;99.90;;;;;;4950353;28;20402;-75
2023/05/07 07:40:27;;;;;;;15.35;10.80;;;10.40;99.90;;;;;;4953694;28;20055;-75
2023/05/07 07:42:53;;;;;;;21.85;12.40;;;10.40;99.90;;;;;;4972768;28;20051;-75
2023/05/07 07:45:19;;;;;;;19.45;12.10;;;10.50;99.90;;;;;;4972548;28;20409;-76
2023/05/07 07:47:45;;;;;;;19.75;13.73;;;10.50;99.90;;;;;;4972927;28;20043;-74
2023/05/07 07:50:11;;;;;;;20.02;12.73;;;10.50;99.90;;;;;;4957734;28;20112;-74
2023/05/07 07:52:37;;;;;;;21.35;13.13;;;10.50;99.90;;;;;;4966934;28;20556;-74
2023/05/07 07:55:04;;;;;;;19.52;12.15;;;10.60;99.90;;;;;;4972277;28;20173;-75
2023/05/07 07:57:30;;;;;;;23.20;14.75;;;10.60;99.90;;;;;;4951977;28;20073;-74
2023/05/07 07:59:56;;;;;;;20.23;12.85;;;10.60;99.90;;;;;;4956999;28;20050;-74
2023/05/07 08:02:22;;;;;;;17.67;11.00;;;10.70;99.90;;;;;;4976620;28;20062;-74
2023/05/07 08:04:47;;;;;;;17.50;12.07;;;10.70;99.90;;;;;;4974426;28;20050;-75
2023/05/07 08:07:13;;;;;;;20.42;13.80;;;10.70;99.90;;;;;;4972581;28;20061;-74
2023/05/07 08:09:39;;;;;;;22.40;13.32;;;10.70;99.90;;;;;;4971587;28;20062;-74
2023/05/07 08:12:06;;;;;;;20.35;14.10;;;10.80;99.90;;;;;;4967784;28;20057;-74
2023/05/07 08:14:32;;;;;;;18.60;14.30;;;10.90;99.90;;;;;;4980712;28;20100;-74
2023/05/07 08:16:58;;;;;;;16.55;13.02;;;10.90;99.90;;;;;;4973155;28;20062;-75
2023/05/07 08:19:24;;;;;;;24.13;14.80;;;11.00;99.90;;;;;;4956204;28;20377;-75
2023/05/07 08:21:51;;;;;;;19.23;13.57;;;11.00;99.90;;;;;;4955055;28;20054;-74
2023/05/07 08:24:17;;;;;;;19.67;13.32;;;11.10;99.90;;;;;;4954706;28;20058;-75
2023/05/07 08:26:44;;;;;;;20.55;13.13;;;11.10;99.90;;;;;;4959491;28;20204;-74
2023/05/07 08:29:10;;;;;;;21.08;13.27;;;11.30;99.90;;;;;;4977785;28;20408;-75
2023/05/07 08:31:38;;;;;;;18.83;12.68;;;11.30;99.90;;;;;;4963518;28;20072;-74
2023/05/07 08:34:04;;;;;;;20.67;14.68;;;11.20;99.90;;;;;;4961105;28;20056;-75
2023/05/07 08:36:30;;;;;;;18.88;11.20;;;11.30;99.90;;;;;;4976299;28;20073;-75
2023/05/07 08:38:56;;;;;;;18.52;12.57;;;11.30;99.90;;;;;;4964953;28;20054;-75
2023/05/07 08:41:22;;;;;;;21.33;14.77;;;11.40;99.90;;;;;;4959717;28;20117;-74
2023/05/07 08:43:50;;;;;;;19.17;14.02;;;11.40;99.90;;;;;;4967670;28;20047;-74
2023/05/07 08:46:21;;;;;;;18.50;13.88;;;11.50;99.90;;;;;;4968822;28;20050;-74
2023/05/07 08:48:51;;;;;;;17.25;11.20;;;11.50;99.90;;;;;;4961097;28;20384;-74
2023/05/07 08:51:18;;;;;;;;;;;11.40;99.90;;;;;;4970503;28;20066;-74
2023/05/07 08:53:45;;;;;;;16.33;12.27;;;11.40;99.90;;;;;;4967368;28;19968;-75
2023/05/07 08:56:12;;;;;;;14.35;12.27;;;11.40;99.90;;;;;;4970211;28;20037;-74
2023/05/07 08:58:37;;;;;;;16.63;13.40;;;11.50;99.90;;;;;;4970135;28;20038;-75
2023/05/07 09:01:08;;;;;;;17.13;14.13;;;11.50;99.90;;;;;;4956951;28;20058;-75
2023/05/07 09:03:34;;;;;;;19.90;14.73;;;11.70;99.90;;;;;;4973105;28;20046;-75
2023/05/07 09:06:00;;;;;;;22.23;15.00;;;11.90;99.90;;;;;;4979274;28;20125;-74
2023/05/07 09:08:29;;;;;;;19.10;14.10;;;12.00;99.90;;;;;;4971181;28;20050;-74
2023/05/07 09:10:55;;;;;;;13.47;10.77;;;12.10;99.90;;;;;;4936936;28;20137;-73
2023/05/07 09:13:21;;;;;;;18.00;14.38;;;12.20;99.90;;;;;;4964276;28;20098;-75
2023/05/07 09:15:47;;;;;;;18.00;14.68;;;12.30;99.90;;;;;;4947826;28;20047;-75
2023/05/07 09:18:13;;;;;;;21.30;15.30;;;12.30;99.90;;;;;;4951404;28;20046;-74
2023/05/07 09:20:39;;;;;;;20.30;15.02;;;12.40;99.90;;;;;;4933632;28;20150;-74
2023/05/07 09:23:07;;;;;;;21.35;14.48;;;12.50;99.90;;;;;;4951166;28;20137;-75
2023/05/07 09:25:34;;;;;;;16.85;13.82;;;12.60;99.90;;;;;;4966723;28;20047;-74
2023/05/07 09:28:01;;;;;;;20.35;14.70;;;12.70;99.90;;;;;;4966374;28;20059;-75
2023/05/07 09:30:29;;;;;;;20.20;14.50;;;12.70;99.90;;;;;;4968069;28;20058;-75
2023/05/07 09:32:55;;;;;;;18.15;14.18;;;12.80;99.90;;;;;;4965169;28;20046;-74
2023/05/07 09:35:24;;;;;;;16.67;13.65;;;12.80;99.90;;;;;;4967236;28;20126;-74
2023/05/07 09:37:50;;;;;;;16.45;14.07;;;12.80;99.90;;;;;;4965433;28;20090;-74
2023/05/07 09:40:27;;;;;;;17.98;14.75;;;12.80;99.90;;;;;;4951456;28;20129;-74
2023/05/07 09:42:53;;;;;;;18.00;15.70;;;12.70;99.90;;;;;;4950376;28;20438;-74
2023/05/07 09:45:29;;;;;;;21.15;15.40;;;12.80;99.90;;;;;;4950149;28;20043;-75
2023/05/07 09:47:56;;;;;;;19.83;15.23;;;12.80;99.90;;;;;;4966690;28;20584;-75
2023/05/07 09:50:49;;;;;;;22.67;15.27;;;12.70;99.90;;;;;;4965030;28;20165;-75
2023/05/07 09:53:16;;;;;;;18.25;16.20;;;12.80;99.90;;;;;;4961690;28;20054;-75
2023/05/07 09:55:43;;;;;;;19.73;15.07;;;12.90;99.90;;;;;;4965916;28;20047;-74
2023/05/07 09:58:12;;;;;;;19.60;15.40;;;13.10;99.90;;;;;;4966230;28;20060;-74
2023/05/07 10:00:41;;;;;;;19.13;15.55;;;13.10;99.90;;;;;;4966723;28;20074;-74
2023/05/07 10:03:08;;;;;;;19.80;13.88;;;13.10;99.90;;;;;;4965042;28;20153;-76
2023/05/07 10:05:34;;;;;;;18.33;14.18;;;13.20;99.90;;;;;;4968767;28;20140;-75
2023/05/07 10:08:01;;;;;;;19.50;14.68;;;13.20;99.90;;;;;;4952465;28;20422;-75
2023/05/07 10:10:29;;;;;;;17.48;14.85;;;13.30;99.90;;;;;;4975107;28;20126;-75
2023/05/07 10:12:54;;;;;;;19.83;14.48;;;13.40;99.90;;;;;;4968664;28;20058;-75
2023/05/07 10:15:21;;;;;;;19.83;15.57;;;13.40;99.90;;;;;;4969675;28;20043;-75
2023/05/07 10:17:49;;;;;;;16.67;13.02;;;13.30;99.90;;;;;;4969916;28;20547;-75
2023/05/07 10:20:15;;;;;;;18.27;16.17;;;13.20;99.90;;;;;;4969113;28;20054;-75
2023/05/07 10:22:47;;;;;;;21.73;17.13;;;13.30;99.90;;;;;;4970044;28;20042;-75
2023/05/07 10:25:28;;;;;;;20.08;15.52;;;13.40;99.90;;;;;;4969254;28;20059;-74
2023/05/07 10:27:58;;;;;;;17.13;13.82;;;13.40;99.90;;;;;;4971570;28;20405;-75
2023/05/07 10:31:00;;;;;;;18.45;13.25;;;13.40;99.90;;;;;;4953967;28;20109;-75
2023/05/07 10:33:29;;;;;;;22.58;16.70;;;13.30;99.90;;;;;;4969232;28;20349;-75
2023/05/07 10:35:59;;;;;;;17.13;12.45;;;13.40;99.90;;;;;;4970078;28;20528;-75
2023/05/07 10:38:25;;;;;;;19.38;17.20;;;13.30;99.90;;;;;;4968768;28;20077;-75
2023/05/07 10:40:51;;;;;;;21.15;16.35;;;13.30;99.90;;;;;;4970065;28;20050;-75
2023/05/07 10:43:17;;;;;;;18.92;14.55;;;13.40;99.90;;;;;;4953377;28;20177;-76
2023/05/07 10:45:43;;;;;;;19.30;14.07;;;13.50;99.90;;;;;;4953425;28;20126;-74
2023/05/07 10:48:14;;;;;;;16.83;13.80;;;13.50;99.90;;;;;;4970115;28;20106;-75
2023/05/07 10:50:46;;;;;;;17.25;14.82;;;13.60;99.90;;;;;;4968724;28;20571;-75
2023/05/07 10:53:17;;;;;;;19.42;14.23;;;13.70;99.90;;;;;;4970230;28;20067;-75
2023/05/07 10:55:47;;;;;;;18.95;16.33;;;13.70;99.90;;;;;;4968857;28;20410;-75
2023/05/07 10:58:28;;;;;;;18.10;14.02;;;13.60;99.90;;;;;;4970110;28;20054;-76
2023/05/07 11:00:59;;;;;;;15.57;12.10;;;13.70;99.90;;;;;;4969434;28;20047;-75
2023/05/07 11:03:26;;;;;;;19.50;14.43;;;13.70;99.90;;;;;;4968738;28;20129;-75
2023/05/07 11:06:13;;;;;;;19.92;15.02;;;13.60;99.90;;;;;;4952004;28;20101;-75
2023/05/07 11:08:58;;;;;;;18.52;16.55;;;13.70;99.90;;;;;;4967625;28;20466;-76
2023/05/07 11:11:46;;;;;;;19.65;16.70;;;13.70;99.90;;;;;;4969070;28;20489;-75
2023/05/07 11:14:14;;;;;;;15.43;13.52;;;13.90;99.90;;;;;;4966551;28;20058;-75
2023/05/07 11:16:43;;;;;;;14.57;13.00;;;14.00;99.90;;;;;;4950857;28;20043;-75
2023/05/07 11:19:08;;;;;;;20.33;14.75;;;14.10;99.90;;;;;;4953024;28;20066;-75
2023/05/07 11:21:41;;;;;;;16.58;13.32;;;14.40;99.90;;;;;;4967699;28;20036;-76
2023/05/07 11:24:10;;;;;;;13.68;12.05;;;14.60;99.90;;;;;;4953077;28;20046;-75
2023/05/07 11:26:48;;;;;;;14.20;12.77;;;14.60;99.90;;;;;;4952978;28;20051;-75
2023/05/07 11:29:19;;;;;;;17.50;15.32;;;14.50;99.90;;;;;;4968049;28;20310;-75
2023/05/07 11:31:53;;;;;;;16.48;14.50;;;14.70;99.90;;;;;;4969032;28;20078;-76
2023/05/07 11:34:23;;;;;;;16.48;14.40;;;14.80;99.90;;;;;;4968172;28;20482;-75
2023/05/07 11:36:50;;;;;;;15.82;14.15;;;14.90;99.90;;;;;;4953679;28;20105;-76
2023/05/07 11:39:32;;;;;;;15.27;13.57;;;15.00;99.90;;;;;;4968130;28;20091;-75
2023/05/07 11:41:59;;;;;;;16.17;14.50;;;15.00;99.90;;;;;;4955885;28;20047;-75
2023/05/07 11:44:25;;;;;;;19.73;15.70;;;14.80;99.90;;;;;;4982373;28;20392;-75
2023/05/07 11:46:53;;;;;;;14.45;12.93;;;14.90;99.90;;;;;;4968252;28;20051;-76
2023/05/07 11:49:19;;;;;;;20.60;16.13;;;15.00;99.90;;;;;;4969221;28;20497;-75
2023/05/07 11:51:46;;;;;;;15.77;13.70;;;14.90;99.90;;;;;;4951227;28;20054;-75
2023/05/07 11:54:16;;;;;;;16.00;14.30;;;15.20;99.90;;;;;;4968869;28;20055;-75
2023/05/07 11:56:41;;;;;;;15.60;13.20;;;15.20;99.90;;;;;;4951849;28;20053;-74
2023/05/07 11:59:07;;;;;;;11.38;9.70;;;15.20;99.90;;;;;;4968059;28;20046;-75
2023/05/07 12:01:35;;;;;;;10.15;9.15;;;15.40;99.90;;;;;;4968420;28;20109;-75
2023/05/07 12:04:03;;;;;;;14.18;9.90;;;15.40;99.90;;;;;;4967210;28;20126;-76
2023/05/07 12:06:29;;;;;;;11.32;10.32;;;15.40;99.90;;;;;;4969000;28;20047;-74
2023/05/07 12:08:55;;;;;;;12.35;11.05;;;15.40;99.90;;;;;;4949590;28;20058;-75
2023/05/07 12:11:25;;;;;;;13.05;11.85;;;15.60;99.90;;;;;;4968672;28;20490;-75
2023/05/07 12:13:51;;;;;;;13.25;11.15;;;15.50;99.90;;;;;;4980645;28;20042;-75
2023/05/07 12:16:18;;;;;;;11.82;10.55;;;15.50;99.90;;;;;;4967768;28;20074;-74
2023/05/07 12:18:45;;;;;;;14.75;12.20;;;15.50;99.90;;;;;;4951994;28;20490;-75
2023/05/07 12:21:12;;;;;;;13.48;12.07;;;15.50;99.90;;;;;;4966570;28;20566;-75
2023/05/07 12:23:38;;;;;;;14.23;12.73;;;15.50;99.90;;;;;;4969696;28;20494;-75
2023/05/07 12:26:04;;;;;;;14.02;12.52;;;15.40;99.90;;;;;;4966143;28;20046;-75
2023/05/07 12:28:36;;;;;;;15.48;13.90;;;15.40;99.90;;;;;;4968543;28;20047;-74
2023/05/07 12:31:02;;;;;;;14.45;13.05;;;15.50;99.90;;;;;;4965578;28;20047;-74